sensor_id;sensor_type;location;lat;lon;timestamp;P1;durP1;ratioP1;P2;durP2;ratioP2
72891;SDS011;61032;50.782;6.818;2023-10-19T00:00:32;4.50;;;2.50;;
72891;SDS011;61032;50.782;6.818;2023-10-19T00:01:39;5.13;;;3.80;;
72891;SDS011;61032;50.782;6.818;2023-10-19T00:02:39;5.50;;;3.63;;
72891;SDS011;61032;50.782;6.818;2023-10-19T00:03:40;3.80;;;2.63;;
72891;SDS011;61032;50.782;6.818;2023-10-19T00:04:40;3.80;;;2.22;;
72891;SDS011;61032;50.782;6.818;2023-10-19T00:05:40;3.92;;;3.03;;
72891;SDS011;61032;50.782;6.818;2023-10-19T00:06:41;3.17;;;2.70;;
72891;SDS011;61032;50.782;6.818;2023-10-19T00:07:44;3.92;;;2.70;;
72891;SDS011;61032;50.782;6.818;2023-10-19T00:08:46;4.10;;;2.72;;
72891;SDS011;61032;50.782;6.818;2023-10-19T00:09:46;6.07;;;3.05;;
72891;SDS011;61032;50.782;6.818;2023-10-19T00:10:54;3.85;;;2.88;;
72891;SDS011;61032;50.782;6.818;2023-10-19T00:12:07;5.15;;;4.03;;
72891;SDS011;61032;50.782;6.818;2023-10-19T00:13:10;4.55;;;3.03;;
72891;SDS011;61032;50.782;6.818;2023-10-19T00:14:14;4.55;;;2.95;;
72891;SDS011;61032;50.782;6.818;2023-10-19T00:15:16;4.03;;;2.55;;
72891;SDS011;61032;50.782;6.818;2023-10-19T00:16:22;4.53;;;3.35;;
72891;SDS011;61032;50.782;6.818;2023-10-19T00:17:24;4.57;;;3.08;;
72891;SDS011;61032;50.782;6.818;2023-10-19T00:18:27;3.97;;;3.25;;
72891;SDS011;61032;50.782;6.818;2023-10-19T00:19:27;5.30;;;3.17;;
72891;SDS011;61032;50.782;6.818;2023-10-19T00:20:28;4.57;;;3.03;;
72891;SDS011;61032;50.782;6.818;2023-10-19T00:21:51;4.68;;;2.63;;
72891;SDS011;61032;50.782;6.818;2023-10-19T00:22:54;3.85;;;2.95;;
72891;SDS011;61032;50.782;6.818;2023-10-19T00:23:56;4.72;;;2.90;;
72891;SDS011;61032;50.782;6.818;2023-10-19T00:24:57;4.68;;;3.25;;
72891;SDS011;61032;50.782;6.818;2023-10-19T00:25:59;5.43;;;3.55;;
72891;SDS011;61032;50.782;6.818;2023-10-19T00:27:08;5.30;;;3.15;;
72891;SDS011;61032;50.782;6.818;2023-10-19T00:28:27;3.78;;;2.72;;
72891;SDS011;61032;50.782;6.818;2023-10-19T00:29:28;5.35;;;2.70;;
72891;SDS011;61032;50.782;6.818;2023-10-19T00:30:32;5.80;;;3.30;;
72891;SDS011;61032;50.782;6.818;2023-10-19T00:31:35;5.05;;;3.30;;
72891;SDS011;61032;50.782;6.818;2023-10-19T00:32:40;4.38;;;2.92;;
72891;SDS011;61032;50.782;6.818;2023-10-19T00:33:40;4.25;;;3.33;;
72891;SDS011;61032;50.782;6.818;2023-10-19T00:34:41;3.88;;;3.40;;
72891;SDS011;61032;50.782;6.818;2023-10-19T00:35:43;4.50;;;3.20;;
72891;SDS011;61032;50.782;6.818;2023-10-19T00:36:47;4.80;;;3.55;;
72891;SDS011;61032;50.782;6.818;2023-10-19T00:37:48;4.75;;;3.50;;
72891;SDS011;61032;50.782;6.818;2023-10-19T00:38:48;5.50;;;3.78;;
72891;SDS011;61032;50.782;6.818;2023-10-19T00:39:49;3.83;;;2.78;;
72891;SDS011;61032;50.782;6.818;2023-10-19T00:40:56;5.18;;;3.30;;
72891;SDS011;61032;50.782;6.818;2023-10-19T00:41:59;5.40;;;3.42;;
72891;SDS011;61032;50.782;6.818;2023-10-19T00:43:02;5.70;;;3.60;;
72891;SDS011;61032;50.782;6.818;2023-10-19T00:44:08;7.55;;;3.58;;
72891;SDS011;61032;50.782;6.818;2023-10-19T00:45:11;4.75;;;3.15;;
72891;SDS011;61032;50.782;6.818;2023-10-19T00:46:14;6.70;;;3.13;;
72891;SDS011;61032;50.782;6.818;2023-10-19T00:47:18;4.65;;;2.75;;
72891;SDS011;61032;50.782;6.818;2023-10-19T00:48:25;4.45;;;3.33;;
72891;SDS011;61032;50.782;6.818;2023-10-19T00:49:27;5.40;;;3.13;;
72891;SDS011;61032;50.782;6.818;2023-10-19T00:50:28;6.63;;;3.78;;
72891;SDS011;61032;50.782;6.818;2023-10-19T00:51:33;4.45;;;3.42;;
72891;SDS011;61032;50.782;6.818;2023-10-19T00:52:36;5.00;;;3.38;;
72891;SDS011;61032;50.782;6.818;2023-10-19T00:53:43;6.13;;;3.38;;
72891;SDS011;61032;50.782;6.818;2023-10-19T00:54:44;5.97;;;3.10;;
72891;SDS011;61032;50.782;6.818;2023-10-19T00:55:52;5.43;;;3.83;;
72891;SDS011;61032;50.782;6.818;2023-10-19T00:56:53;5.68;;;3.08;;
72891;SDS011;61032;50.782;6.818;2023-10-19T00:57:58;5.22;;;3.05;;
72891;SDS011;61032;50.782;6.818;2023-10-19T00:59:03;5.43;;;4.00;;
72891;SDS011;61032;50.782;6.818;2023-10-19T01:00:14;5.32;;;3.22;;
72891;SDS011;61032;50.782;6.818;2023-10-19T01:01:31;5.10;;;3.55;;
72891;SDS011;61032;50.782;6.818;2023-10-19T01:02:36;4.90;;;3.30;;
72891;SDS011;61032;50.782;6.818;2023-10-19T01:03:43;5.60;;;3.13;;
72891;SDS011;61032;50.782;6.818;2023-10-19T01:04:44;4.28;;;3.47;;
72891;SDS011;61032;50.782;6.818;2023-10-19T01:05:50;4.75;;;3.22;;
72891;SDS011;61032;50.782;6.818;2023-10-19T01:06:50;5.10;;;3.10;;
72891;SDS011;61032;50.782;6.818;2023-10-19T01:08:09;7.00;;;3.30;;
72891;SDS011;61032;50.782;6.818;2023-10-19T01:09:32;4.25;;;2.60;;
72891;SDS011;61032;50.782;6.818;2023-10-19T01:10:36;5.97;;;4.03;;
72891;SDS011;61032;50.782;6.818;2023-10-19T01:11:37;5.22;;;3.80;;
72891;SDS011;61032;50.782;6.818;2023-10-19T01:12:37;4.53;;;3.42;;
72891;SDS011;61032;50.782;6.818;2023-10-19T01:13:41;5.40;;;4.25;;
72891;SDS011;61032;50.782;6.818;2023-10-19T01:16:25;5.72;;;3.00;;
72891;SDS011;61032;50.782;6.818;2023-10-19T01:17:26;4.63;;;3.05;;
72891;SDS011;61032;50.782;6.818;2023-10-19T01:18:27;5.47;;;3.20;;
72891;SDS011;61032;50.782;6.818;2023-10-19T01:19:29;4.85;;;2.97;;
72891;SDS011;61032;50.782;6.818;2023-10-19T01:20:30;4.70;;;3.00;;
72891;SDS011;61032;50.782;6.818;2023-10-19T01:21:31;3.72;;;2.72;;
72891;SDS011;61032;50.782;6.818;2023-10-19T01:22:37;6.88;;;3.22;;
72891;SDS011;61032;50.782;6.818;2023-10-19T01:23:42;5.35;;;3.75;;
72891;SDS011;61032;50.782;6.818;2023-10-19T01:24:44;5.32;;;3.67;;
72891;SDS011;61032;50.782;6.818;2023-10-19T01:26:47;4.68;;;3.00;;
72891;SDS011;61032;50.782;6.818;2023-10-19T01:27:48;5.38;;;3.42;;
72891;SDS011;61032;50.782;6.818;2023-10-19T01:28:49;6.68;;;3.63;;
72891;SDS011;61032;50.782;6.818;2023-10-19T01:29:53;3.85;;;3.08;;
72891;SDS011;61032;50.782;6.818;2023-10-19T01:30:53;5.15;;;3.47;;
72891;SDS011;61032;50.782;6.818;2023-10-19T01:31:54;5.80;;;3.67;;
72891;SDS011;61032;50.782;6.818;2023-10-19T01:33:06;5.10;;;3.60;;
72891;SDS011;61032;50.782;6.818;2023-10-19T01:34:12;5.45;;;3.53;;
72891;SDS011;61032;50.782;6.818;2023-10-19T01:35:14;4.88;;;3.15;;
72891;SDS011;61032;50.782;6.818;2023-10-19T01:36:14;5.25;;;3.50;;
72891;SDS011;61032;50.782;6.818;2023-10-19T01:37:16;4.57;;;2.78;;
72891;SDS011;61032;50.782;6.818;2023-10-19T01:38:16;3.97;;;3.50;;
72891;SDS011;61032;50.782;6.818;2023-10-19T01:39:17;4.97;;;2.85;;
72891;SDS011;61032;50.782;6.818;2023-10-19T01:40:18;4.68;;;2.35;;
72891;SDS011;61032;50.782;6.818;2023-10-19T01:41:22;6.80;;;2.88;;
72891;SDS011;61032;50.782;6.818;2023-10-19T01:42:24;3.50;;;2.50;;
72891;SDS011;61032;50.782;6.818;2023-10-19T01:43:25;5.40;;;3.42;;
72891;SDS011;61032;50.782;6.818;2023-10-19T01:44:30;4.75;;;3.38;;
72891;SDS011;61032;50.782;6.818;2023-10-19T01:45:31;3.58;;;3.03;;
72891;SDS011;61032;50.782;6.818;2023-10-19T01:47:34;4.60;;;2.33;;
72891;SDS011;61032;50.782;6.818;2023-10-19T01:48:35;4.05;;;2.30;;
72891;SDS011;61032;50.782;6.818;2023-10-19T01:49:38;3.55;;;2.63;;
72891;SDS011;61032;50.782;6.818;2023-10-19T01:50:38;3.78;;;2.50;;
72891;SDS011;61032;50.782;6.818;2023-10-19T01:51:39;5.68;;;2.38;;
72891;SDS011;61032;50.782;6.818;2023-10-19T01:52:39;3.75;;;2.50;;
72891;SDS011;61032;50.782;6.818;2023-10-19T01:53:40;5.07;;;2.63;;
72891;SDS011;61032;50.782;6.818;2023-10-19T01:54:44;4.28;;;2.42;;
72891;SDS011;61032;50.782;6.818;2023-10-19T01:55:45;4.85;;;2.28;;
72891;SDS011;61032;50.782;6.818;2023-10-19T01:56:47;5.07;;;2.67;;
72891;SDS011;61032;50.782;6.818;2023-10-19T01:57:50;2.90;;;1.95;;
72891;SDS011;61032;50.782;6.818;2023-10-19T01:58:51;4.60;;;3.08;;
72891;SDS011;61032;50.782;6.818;2023-10-19T01:59:51;3.85;;;2.53;;
72891;SDS011;61032;50.782;6.818;2023-10-19T02:00:55;3.65;;;2.10;;
72891;SDS011;61032;50.782;6.818;2023-10-19T02:01:56;2.90;;;2.45;;
72891;SDS011;61032;50.782;6.818;2023-10-19T02:02:57;5.03;;;2.10;;
72891;SDS011;61032;50.782;6.818;2023-10-19T02:04:01;3.72;;;2.65;;
72891;SDS011;61032;50.782;6.818;2023-10-19T02:05:03;3.75;;;2.10;;
72891;SDS011;61032;50.782;6.818;2023-10-19T02:06:14;3.72;;;2.30;;
72891;SDS011;61032;50.782;6.818;2023-10-19T02:07:19;2.92;;;2.35;;
72891;SDS011;61032;50.782;6.818;2023-10-19T02:08:20;4.50;;;2.72;;
72891;SDS011;61032;50.782;6.818;2023-10-19T02:09:25;4.00;;;2.80;;
72891;SDS011;61032;50.782;6.818;2023-10-19T02:10:29;3.50;;;2.40;;
72891;SDS011;61032;50.782;6.818;2023-10-19T02:11:29;4.90;;;2.85;;
72891;SDS011;61032;50.782;6.818;2023-10-19T02:12:30;4.68;;;2.53;;
72891;SDS011;61032;50.782;6.818;2023-10-19T02:13:34;3.20;;;2.22;;
72891;SDS011;61032;50.782;6.818;2023-10-19T02:14:35;3.58;;;2.70;;
72891;SDS011;61032;50.782;6.818;2023-10-19T02:15:37;4.50;;;2.60;;
72891;SDS011;61032;50.782;6.818;2023-10-19T02:16:37;3.75;;;2.75;;
72891;SDS011;61032;50.782;6.818;2023-10-19T02:17:38;5.22;;;2.92;;
72891;SDS011;61032;50.782;6.818;2023-10-19T02:18:40;5.47;;;3.42;;
72891;SDS011;61032;50.782;6.818;2023-10-19T02:19:42;5.13;;;3.13;;
72891;SDS011;61032;50.782;6.818;2023-10-19T02:20:43;3.92;;;2.75;;
72891;SDS011;61032;50.782;6.818;2023-10-19T02:21:48;3.83;;;2.30;;
72891;SDS011;61032;50.782;6.818;2023-10-19T02:22:52;4.93;;;2.63;;
72891;SDS011;61032;50.782;6.818;2023-10-19T02:23:52;6.93;;;3.33;;
72891;SDS011;61032;50.782;6.818;2023-10-19T02:24:53;3.63;;;2.83;;
72891;SDS011;61032;50.782;6.818;2023-10-19T02:25:53;4.10;;;2.70;;
72891;SDS011;61032;50.782;6.818;2023-10-19T02:26:54;3.78;;;2.95;;
72891;SDS011;61032;50.782;6.818;2023-10-19T02:27:56;3.78;;;2.38;;
72891;SDS011;61032;50.782;6.818;2023-10-19T02:28:56;4.63;;;2.50;;
72891;SDS011;61032;50.782;6.818;2023-10-19T02:29:58;3.17;;;2.42;;
72891;SDS011;61032;50.782;6.818;2023-10-19T02:30:58;3.67;;;2.85;;
72891;SDS011;61032;50.782;6.818;2023-10-19T02:32:11;4.63;;;3.42;;
72891;SDS011;61032;50.782;6.818;2023-10-19T02:33:11;3.60;;;2.40;;
72891;SDS011;61032;50.782;6.818;2023-10-19T02:34:12;4.18;;;2.55;;
72891;SDS011;61032;50.782;6.818;2023-10-19T02:35:15;3.95;;;2.42;;
72891;SDS011;61032;50.782;6.818;2023-10-19T02:36:15;4.10;;;2.83;;
72891;SDS011;61032;50.782;6.818;2023-10-19T02:37:16;3.90;;;2.97;;
72891;SDS011;61032;50.782;6.818;2023-10-19T02:38:16;3.08;;;2.28;;
72891;SDS011;61032;50.782;6.818;2023-10-19T02:39:17;3.47;;;2.28;;
72891;SDS011;61032;50.782;6.818;2023-10-19T02:40:17;4.38;;;2.83;;
72891;SDS011;61032;50.782;6.818;2023-10-19T02:41:23;3.17;;;2.75;;
72891;SDS011;61032;50.782;6.818;2023-10-19T02:42:23;5.10;;;2.42;;
72891;SDS011;61032;50.782;6.818;2023-10-19T02:43:24;5.80;;;2.30;;
72891;SDS011;61032;50.782;6.818;2023-10-19T02:44:24;3.55;;;2.90;;
72891;SDS011;61032;50.782;6.818;2023-10-19T02:45:25;3.92;;;2.58;;
72891;SDS011;61032;50.782;6.818;2023-10-19T02:46:34;4.82;;;3.38;;
72891;SDS011;61032;50.782;6.818;2023-10-19T02:47:34;3.63;;;2.42;;
72891;SDS011;61032;50.782;6.818;2023-10-19T02:48:35;4.65;;;2.92;;
72891;SDS011;61032;50.782;6.818;2023-10-19T02:49:35;3.45;;;2.60;;
72891;SDS011;61032;50.782;6.818;2023-10-19T02:50:39;4.65;;;2.60;;
72891;SDS011;61032;50.782;6.818;2023-10-19T02:51:40;3.95;;;2.33;;
72891;SDS011;61032;50.782;6.818;2023-10-19T02:52:45;2.90;;;2.47;;
72891;SDS011;61032;50.782;6.818;2023-10-19T02:53:45;3.92;;;2.30;;
72891;SDS011;61032;50.782;6.818;2023-10-19T02:54:46;4.13;;;3.00;;
72891;SDS011;61032;50.782;6.818;2023-10-19T02:55:47;3.45;;;2.22;;
72891;SDS011;61032;50.782;6.818;2023-10-19T02:56:47;5.75;;;3.03;;
72891;SDS011;61032;50.782;6.818;2023-10-19T02:57:49;4.82;;;3.03;;
72891;SDS011;61032;50.782;6.818;2023-10-19T02:58:50;3.78;;;2.67;;
72891;SDS011;61032;50.782;6.818;2023-10-19T02:59:51;4.05;;;3.50;;
72891;SDS011;61032;50.782;6.818;2023-10-19T03:00:51;3.70;;;3.00;;
72891;SDS011;61032;50.782;6.818;2023-10-19T03:01:52;3.13;;;2.00;;
72891;SDS011;61032;50.782;6.818;2023-10-19T03:03:01;3.85;;;2.53;;
72891;SDS011;61032;50.782;6.818;2023-10-19T03:04:02;5.70;;;2.85;;
72891;SDS011;61032;50.782;6.818;2023-10-19T03:05:04;3.88;;;1.98;;
72891;SDS011;61032;50.782;6.818;2023-10-19T03:06:17;2.97;;;2.53;;
72891;SDS011;61032;50.782;6.818;2023-10-19T03:07:20;3.30;;;1.90;;
72891;SDS011;61032;50.782;6.818;2023-10-19T03:08:20;3.58;;;2.70;;
72891;SDS011;61032;50.782;6.818;2023-10-19T03:09:21;3.58;;;2.50;;
72891;SDS011;61032;50.782;6.818;2023-10-19T03:10:27;3.78;;;2.55;;
72891;SDS011;61032;50.782;6.818;2023-10-19T03:11:38;3.33;;;2.20;;
72891;SDS011;61032;50.782;6.818;2023-10-19T03:12:40;4.20;;;2.00;;
72891;SDS011;61032;50.782;6.818;2023-10-19T03:13:41;4.75;;;2.40;;
72891;SDS011;61032;50.782;6.818;2023-10-19T03:14:43;3.60;;;2.47;;
72891;SDS011;61032;50.782;6.818;2023-10-19T03:15:46;4.10;;;1.98;;
72891;SDS011;61032;50.782;6.818;2023-10-19T03:16:48;3.00;;;1.60;;
72891;SDS011;61032;50.782;6.818;2023-10-19T03:17:49;4.30;;;2.55;;
72891;SDS011;61032;50.782;6.818;2023-10-19T03:18:50;3.85;;;2.40;;
72891;SDS011;61032;50.782;6.818;2023-10-19T03:19:50;3.95;;;2.08;;
72891;SDS011;61032;50.782;6.818;2023-10-19T03:20:51;3.35;;;2.50;;
72891;SDS011;61032;50.782;6.818;2023-10-19T03:21:51;4.10;;;2.20;;
72891;SDS011;61032;50.782;6.818;2023-10-19T03:22:55;2.65;;;1.65;;
72891;SDS011;61032;50.782;6.818;2023-10-19T03:24:00;5.40;;;2.85;;
72891;SDS011;61032;50.782;6.818;2023-10-19T03:25:06;2.58;;;2.20;;
72891;SDS011;61032;50.782;6.818;2023-10-19T03:26:27;4.20;;;1.98;;
72891;SDS011;61032;50.782;6.818;2023-10-19T03:27:30;3.75;;;2.28;;
72891;SDS011;61032;50.782;6.818;2023-10-19T03:28:31;3.55;;;2.25;;
72891;SDS011;61032;50.782;6.818;2023-10-19T03:29:35;5.38;;;2.95;;
72891;SDS011;61032;50.782;6.818;2023-10-19T03:30:38;3.65;;;2.30;;
72891;SDS011;61032;50.782;6.818;2023-10-19T03:31:39;6.53;;;2.50;;
72891;SDS011;61032;50.782;6.818;2023-10-19T03:32:43;3.20;;;2.42;;
72891;SDS011;61032;50.782;6.818;2023-10-19T03:33:44;3.00;;;2.10;;
72891;SDS011;61032;50.782;6.818;2023-10-19T03:34:49;4.38;;;3.13;;
72891;SDS011;61032;50.782;6.818;2023-10-19T03:35:55;7.95;;;4.18;;
72891;SDS011;61032;50.782;6.818;2023-10-19T03:36:55;8.70;;;3.15;;
72891;SDS011;61032;50.782;6.818;2023-10-19T03:37:55;7.30;;;3.97;;
72891;SDS011;61032;50.782;6.818;2023-10-19T03:39:02;7.03;;;4.82;;
72891;SDS011;61032;50.782;6.818;2023-10-19T03:40:11;5.97;;;4.18;;
72891;SDS011;61032;50.782;6.818;2023-10-19T03:41:21;4.82;;;3.35;;
72891;SDS011;61032;50.782;6.818;2023-10-19T03:42:22;5.50;;;3.17;;
72891;SDS011;61032;50.782;6.818;2023-10-19T03:43:27;5.50;;;3.03;;
72891;SDS011;61032;50.782;6.818;2023-10-19T03:44:27;4.65;;;2.95;;
72891;SDS011;61032;50.782;6.818;2023-10-19T03:45:39;4.28;;;2.47;;
72891;SDS011;61032;50.782;6.818;2023-10-19T03:46:44;2.70;;;2.10;;
72891;SDS011;61032;50.782;6.818;2023-10-19T03:47:56;3.78;;;2.30;;
72891;SDS011;61032;50.782;6.818;2023-10-19T03:48:57;3.60;;;2.63;;
72891;SDS011;61032;50.782;6.818;2023-10-19T03:50:10;4.15;;;1.95;;
72891;SDS011;61032;50.782;6.818;2023-10-19T03:51:20;3.05;;;2.03;;
72891;SDS011;61032;50.782;6.818;2023-10-19T03:52:24;5.05;;;2.17;;
72891;SDS011;61032;50.782;6.818;2023-10-19T03:53:30;4.43;;;2.03;;
72891;SDS011;61032;50.782;6.818;2023-10-19T03:54:31;4.85;;;2.03;;
72891;SDS011;61032;50.782;6.818;2023-10-19T03:55:33;3.72;;;2.03;;
72891;SDS011;61032;50.782;6.818;2023-10-19T03:56:38;5.00;;;1.83;;
72891;SDS011;61032;50.782;6.818;2023-10-19T03:57:38;2.30;;;1.88;;
72891;SDS011;61032;50.782;6.818;2023-10-19T03:58:46;4.03;;;1.77;;
72891;SDS011;61032;50.782;6.818;2023-10-19T03:59:50;2.97;;;1.80;;
72891;SDS011;61032;50.782;6.818;2023-10-19T04:00:57;3.13;;;1.83;;
72891;SDS011;61032;50.782;6.818;2023-10-19T04:02:01;4.57;;;2.00;;
72891;SDS011;61032;50.782;6.818;2023-10-19T04:03:09;3.80;;;1.63;;
72891;SDS011;61032;50.782;6.818;2023-10-19T04:04:10;4.90;;;2.38;;
72891;SDS011;61032;50.782;6.818;2023-10-19T04:05:11;4.57;;;1.73;;
72891;SDS011;61032;50.782;6.818;2023-10-19T04:06:15;2.88;;;1.77;;
72891;SDS011;61032;50.782;6.818;2023-10-19T04:07:15;5.32;;;1.80;;
72891;SDS011;61032;50.782;6.818;2023-10-19T04:08:21;3.80;;;1.80;;
72891;SDS011;61032;50.782;6.818;2023-10-19T04:09:26;5.78;;;2.03;;
72891;SDS011;61032;50.782;6.818;2023-10-19T04:10:29;3.75;;;1.80;;
72891;SDS011;61032;50.782;6.818;2023-10-19T04:11:29;3.35;;;2.50;;
72891;SDS011;61032;50.782;6.818;2023-10-19T04:12:36;4.03;;;2.20;;
72891;SDS011;61032;50.782;6.818;2023-10-19T04:13:38;2.53;;;1.70;;
72891;SDS011;61032;50.782;6.818;2023-10-19T04:14:39;4.07;;;2.47;;
72891;SDS011;61032;50.782;6.818;2023-10-19T04:15:39;4.25;;;2.25;;
72891;SDS011;61032;50.782;6.818;2023-10-19T04:16:41;5.88;;;2.10;;
72891;SDS011;61032;50.782;6.818;2023-10-19T04:17:45;3.55;;;2.10;;
72891;SDS011;61032;50.782;6.818;2023-10-19T04:18:47;2.53;;;2.33;;
72891;SDS011;61032;50.782;6.818;2023-10-19T04:19:48;4.78;;;1.95;;
72891;SDS011;61032;50.782;6.818;2023-10-19T04:20:51;2.90;;;1.90;;
72891;SDS011;61032;50.782;6.818;2023-10-19T04:21:54;3.05;;;2.00;;
72891;SDS011;61032;50.782;6.818;2023-10-19T04:22:55;2.60;;;2.17;;
72891;SDS011;61032;50.782;6.818;2023-10-19T04:24:06;3.28;;;2.58;;
72891;SDS011;61032;50.782;6.818;2023-10-19T04:25:09;3.05;;;2.45;;
72891;SDS011;61032;50.782;6.818;2023-10-19T04:26:12;2.58;;;1.73;;
72891;SDS011;61032;50.782;6.818;2023-10-19T04:27:13;6.78;;;2.88;;
72891;SDS011;61032;50.782;6.818;2023-10-19T04:28:15;3.60;;;2.17;;
72891;SDS011;61032;50.782;6.818;2023-10-19T04:29:15;3.90;;;3.05;;
72891;SDS011;61032;50.782;6.818;2023-10-19T04:30:26;4.07;;;1.80;;
72891;SDS011;61032;50.782;6.818;2023-10-19T04:31:27;3.40;;;1.63;;
72891;SDS011;61032;50.782;6.818;2023-10-19T04:32:29;3.42;;;2.10;;
72891;SDS011;61032;50.782;6.818;2023-10-19T04:33:32;4.10;;;2.20;;
72891;SDS011;61032;50.782;6.818;2023-10-19T04:35:36;3.80;;;2.20;;
72891;SDS011;61032;50.782;6.818;2023-10-19T04:36:37;3.40;;;2.35;;
72891;SDS011;61032;50.782;6.818;2023-10-19T04:37:39;4.70;;;2.60;;
72891;SDS011;61032;50.782;6.818;2023-10-19T04:38:42;6.22;;;2.03;;
72891;SDS011;61032;50.782;6.818;2023-10-19T04:39:44;3.63;;;2.35;;
72891;SDS011;61032;50.782;6.818;2023-10-19T04:40:45;3.28;;;2.53;;
72891;SDS011;61032;50.782;6.818;2023-10-19T04:41:45;2.42;;;2.22;;
72891;SDS011;61032;50.782;6.818;2023-10-19T04:42:50;2.70;;;1.90;;
72891;SDS011;61032;50.782;6.818;2023-10-19T04:43:51;3.72;;;2.30;;
72891;SDS011;61032;50.782;6.818;2023-10-19T04:44:51;3.50;;;2.22;;
72891;SDS011;61032;50.782;6.818;2023-10-19T04:45:52;3.10;;;2.17;;
72891;SDS011;61032;50.782;6.818;2023-10-19T04:46:52;2.85;;;2.08;;
72891;SDS011;61032;50.782;6.818;2023-10-19T04:47:52;4.93;;;2.38;;
72891;SDS011;61032;50.782;6.818;2023-10-19T04:48:53;5.50;;;3.05;;
72891;SDS011;61032;50.782;6.818;2023-10-19T04:49:53;4.40;;;3.28;;
72891;SDS011;61032;50.782;6.818;2023-10-19T04:50:53;4.78;;;3.50;;
72891;SDS011;61032;50.782;6.818;2023-10-19T04:51:54;4.95;;;3.42;;
72891;SDS011;61032;50.782;6.818;2023-10-19T04:52:54;5.72;;;3.50;;
72891;SDS011;61032;50.782;6.818;2023-10-19T04:53:54;5.88;;;2.53;;
72891;SDS011;61032;50.782;6.818;2023-10-19T04:54:55;5.38;;;2.90;;
72891;SDS011;61032;50.782;6.818;2023-10-19T04:55:55;5.18;;;3.13;;
72891;SDS011;61032;50.782;6.818;2023-10-19T04:56:56;6.35;;;2.90;;
72891;SDS011;61032;50.782;6.818;2023-10-19T04:57:56;5.00;;;2.85;;
72891;SDS011;61032;50.782;6.818;2023-10-19T04:58:56;3.72;;;2.40;;
72891;SDS011;61032;50.782;6.818;2023-10-19T04:59:57;5.50;;;2.90;;
72891;SDS011;61032;50.782;6.818;2023-10-19T05:00:57;4.88;;;2.40;;
72891;SDS011;61032;50.782;6.818;2023-10-19T05:01:59;5.40;;;2.95;;
72891;SDS011;61032;50.782;6.818;2023-10-19T05:03:02;3.20;;;2.90;;
72891;SDS011;61032;50.782;6.818;2023-10-19T05:04:03;4.78;;;2.45;;
72891;SDS011;61032;50.782;6.818;2023-10-19T05:05:03;6.72;;;3.17;;
72891;SDS011;61032;50.782;6.818;2023-10-19T05:06:04;4.50;;;3.63;;
72891;SDS011;61032;50.782;6.818;2023-10-19T05:07:04;6.68;;;4.60;;
72891;SDS011;61032;50.782;6.818;2023-10-19T05:08:05;5.10;;;3.40;;
72891;SDS011;61032;50.782;6.818;2023-10-19T05:09:05;4.78;;;3.75;;
72891;SDS011;61032;50.782;6.818;2023-10-19T05:10:06;6.60;;;4.18;;
72891;SDS011;61032;50.782;6.818;2023-10-19T05:11:07;4.32;;;3.30;;
72891;SDS011;61032;50.782;6.818;2023-10-19T05:12:07;6.10;;;3.17;;
72891;SDS011;61032;50.782;6.818;2023-10-19T05:13:09;4.88;;;2.80;;
72891;SDS011;61032;50.782;6.818;2023-10-19T05:14:10;5.38;;;2.90;;
72891;SDS011;61032;50.782;6.818;2023-10-19T05:15:10;4.93;;;2.53;;
72891;SDS011;61032;50.782;6.818;2023-10-19T05:16:11;6.82;;;3.85;;
72891;SDS011;61032;50.782;6.818;2023-10-19T05:17:11;4.45;;;2.90;;
72891;SDS011;61032;50.782;6.818;2023-10-19T05:18:12;5.10;;;2.83;;
72891;SDS011;61032;50.782;6.818;2023-10-19T05:19:12;5.10;;;3.60;;
72891;SDS011;61032;50.782;6.818;2023-10-19T05:20:13;4.93;;;3.47;;
72891;SDS011;61032;50.782;6.818;2023-10-19T05:21:13;5.32;;;2.90;;
72891;SDS011;61032;50.782;6.818;2023-10-19T05:22:13;4.68;;;3.03;;
72891;SDS011;61032;50.782;6.818;2023-10-19T05:23:14;3.60;;;2.22;;
72891;SDS011;61032;50.782;6.818;2023-10-19T05:24:14;4.45;;;2.67;;
72891;SDS011;61032;50.782;6.818;2023-10-19T05:25:14;4.97;;;2.78;;
72891;SDS011;61032;50.782;6.818;2023-10-19T05:26:15;5.45;;;2.63;;
72891;SDS011;61032;50.782;6.818;2023-10-19T05:27:15;7.07;;;3.28;;
72891;SDS011;61032;50.782;6.818;2023-10-19T05:28:16;4.88;;;2.88;;
72891;SDS011;61032;50.782;6.818;2023-10-19T05:29:16;4.82;;;3.53;;
72891;SDS011;61032;50.782;6.818;2023-10-19T05:30:16;4.97;;;3.50;;
72891;SDS011;61032;50.782;6.818;2023-10-19T05:31:17;6.15;;;2.78;;
72891;SDS011;61032;50.782;6.818;2023-10-19T05:32:17;5.60;;;2.88;;
72891;SDS011;61032;50.782;6.818;2023-10-19T05:33:17;5.82;;;3.10;;
72891;SDS011;61032;50.782;6.818;2023-10-19T05:34:21;4.72;;;3.08;;
72891;SDS011;61032;50.782;6.818;2023-10-19T05:35:22;5.32;;;2.78;;
72891;SDS011;61032;50.782;6.818;2023-10-19T05:36:26;3.58;;;2.67;;
72891;SDS011;61032;50.782;6.818;2023-10-19T05:37:26;5.72;;;2.50;;
72891;SDS011;61032;50.782;6.818;2023-10-19T05:38:29;4.78;;;2.70;;
72891;SDS011;61032;50.782;6.818;2023-10-19T05:39:29;5.97;;;3.50;;
72891;SDS011;61032;50.782;6.818;2023-10-19T05:40:31;6.03;;;3.22;;
72891;SDS011;61032;50.782;6.818;2023-10-19T05:41:31;5.60;;;3.03;;
72891;SDS011;61032;50.782;6.818;2023-10-19T05:42:34;4.82;;;2.70;;
72891;SDS011;61032;50.782;6.818;2023-10-19T05:43:34;4.70;;;2.65;;
72891;SDS011;61032;50.782;6.818;2023-10-19T05:44:35;6.40;;;3.03;;
72891;SDS011;61032;50.782;6.818;2023-10-19T05:45:35;5.70;;;3.88;;
72891;SDS011;61032;50.782;6.818;2023-10-19T05:46:38;5.60;;;3.03;;
72891;SDS011;61032;50.782;6.818;2023-10-19T05:48:41;6.20;;;2.83;;
72891;SDS011;61032;50.782;6.818;2023-10-19T05:49:41;3.95;;;2.85;;
72891;SDS011;61032;50.782;6.818;2023-10-19T05:50:42;5.45;;;2.92;;
72891;SDS011;61032;50.782;6.818;2023-10-19T05:51:43;5.70;;;2.92;;
72891;SDS011;61032;50.782;6.818;2023-10-19T05:52:44;3.95;;;3.33;;
72891;SDS011;61032;50.782;6.818;2023-10-19T05:53:45;3.75;;;2.63;;
72891;SDS011;61032;50.782;6.818;2023-10-19T05:54:45;4.55;;;2.47;;
72891;SDS011;61032;50.782;6.818;2023-10-19T05:55:46;5.25;;;2.55;;
72891;SDS011;61032;50.782;6.818;2023-10-19T05:56:46;4.38;;;3.40;;
72891;SDS011;61032;50.782;6.818;2023-10-19T05:57:46;5.43;;;3.38;;
72891;SDS011;61032;50.782;6.818;2023-10-19T05:58:47;5.32;;;3.08;;
72891;SDS011;61032;50.782;6.818;2023-10-19T05:59:50;4.82;;;2.75;;
72891;SDS011;61032;50.782;6.818;2023-10-19T06:00:51;3.95;;;3.35;;
72891;SDS011;61032;50.782;6.818;2023-10-19T06:01:52;5.05;;;2.88;;
72891;SDS011;61032;50.782;6.818;2023-10-19T06:02:52;6.18;;;3.55;;
72891;SDS011;61032;50.782;6.818;2023-10-19T06:03:53;6.20;;;3.03;;
72891;SDS011;61032;50.782;6.818;2023-10-19T06:04:54;6.60;;;3.75;;
72891;SDS011;61032;50.782;6.818;2023-10-19T06:05:57;4.15;;;2.95;;
72891;SDS011;61032;50.782;6.818;2023-10-19T06:06:58;5.35;;;3.00;;
72891;SDS011;61032;50.782;6.818;2023-10-19T06:07:58;6.60;;;3.58;;
72891;SDS011;61032;50.782;6.818;2023-10-19T06:08:59;5.97;;;2.63;;
72891;SDS011;61032;50.782;6.818;2023-10-19T06:10:02;6.57;;;3.03;;
72891;SDS011;61032;50.782;6.818;2023-10-19T06:11:06;6.68;;;3.97;;
72891;SDS011;61032;50.782;6.818;2023-10-19T06:12:06;5.05;;;3.35;;
72891;SDS011;61032;50.782;6.818;2023-10-19T06:13:09;5.90;;;3.55;;
72891;SDS011;61032;50.782;6.818;2023-10-19T06:14:09;4.93;;;3.45;;
72891;SDS011;61032;50.782;6.818;2023-10-19T06:15:11;6.20;;;3.83;;
72891;SDS011;61032;50.782;6.818;2023-10-19T06:16:12;6.03;;;4.03;;
72891;SDS011;61032;50.782;6.818;2023-10-19T06:17:12;6.28;;;3.85;;
72891;SDS011;61032;50.782;6.818;2023-10-19T06:18:19;7.53;;;4.00;;
72891;SDS011;61032;50.782;6.818;2023-10-19T06:19:19;7.18;;;4.35;;
72891;SDS011;61032;50.782;6.818;2023-10-19T06:20:19;7.78;;;3.95;;
72891;SDS011;61032;50.782;6.818;2023-10-19T06:21:22;7.70;;;4.95;;
72891;SDS011;61032;50.782;6.818;2023-10-19T06:22:23;5.28;;;3.63;;
72891;SDS011;61032;50.782;6.818;2023-10-19T06:23:24;5.85;;;3.67;;